Time;durP1;ratioP1;P1;durP2;ratioP2;P2;SDS_P1;SDS_P2;PMS_P1;PMS_P2;Temp;Humidity;BMP_temperature;BMP_pressure;BME280_temperature;BME280_humidity;BME280_pressure;Samples;Min_cycle;Max_cycle;Signal;HPM_P1;HPM_P2
2022/11/20 00:01:41;;;;;;;9.83;9.03;;;;;;;4.93;100.00;96199.09;4966387;28;20191;-65
2022/11/20 00:04:08;;;;;;;10.33;9.43;;;;;;;4.90;100.00;96205.50;4976581;28;20195;-65
2022/11/20 00:06:34;;;;;;;10.50;9.43;;;;;;;5.00;100.00;96198.09;4977810;28;20248;-65
2022/11/20 00:09:01;;;;;;;11.37;9.67;;;;;;;4.88;100.00;96207.50;4995818;28;20204;-65
2022/11/20 00:11:28;;;;;;;9.57;8.77;;;;;;;4.92;100.00;96210.47;4994494;28;20219;-65
2022/11/20 00:13:59;;;;;;;11.00;9.10;;;;;;;4.89;100.00;96209.09;4976700;28;20188;-66
2022/11/20 00:16:27;;;;;;;10.23;9.33;;;;;;;4.83;100.00;96215.13;4977019;28;20173;-67
2022/11/20 00:18:53;;;;;;;9.70;8.90;;;;;;;4.92;100.00;96205.28;4976466;28;20280;-65
2022/11/20 00:21:21;;;;;;;9.87;9.07;;;;;;;4.83;100.00;96211.72;4980013;28;20268;-66
2022/11/20 00:23:47;;;;;;;10.13;9.33;;;;;;;4.88;100.00;96210.09;4992217;28;20185;-65
2022/11/20 00:26:15;;;;;;;9.13;8.33;;;;;;;4.86;100.00;96208.69;4976667;28;20192;-64
2022/11/20 00:28:42;;;;;;;10.00;9.10;;;;;;;4.93;100.00;96206.88;4976155;28;20331;-64
2022/11/20 00:31:10;;;;;;;9.33;8.63;;;;;;;4.82;100.00;96210.91;4976373;28;20172;-64
2022/11/20 00:33:36;;;;;;;8.57;7.87;;;;;;;4.97;100.00;96205.47;4989894;28;20195;-65
2022/11/20 00:36:06;;;;;;;8.03;7.37;;;;;;;4.83;100.00;96209.94;4995891;28;20180;-65
2022/11/20 00:38:32;;;;;;;8.87;7.67;;;;;;;4.94;100.00;96213.69;4996179;28;20176;-65
2022/11/20 00:40:59;;;;;;;7.93;7.23;;;;;;;4.90;100.00;96208.09;4984985;28;20275;-66
2022/11/20 00:43:25;;;;;;;7.67;7.10;;;;;;;5.07;100.00;96205.81;4989134;28;20590;-66
2022/11/20 00:45:55;;;;;;;7.80;7.10;;;;;;;5.02;100.00;96208.25;4995052;28;20188;-66
2022/11/20 00:48:20;;;;;;;7.97;7.33;;;;;;;5.07;100.00;96208.41;4995473;28;20231;-65
2022/11/20 00:50:46;;;;;;;9.03;8.30;;;;;;;5.02;100.00;96222.03;4986827;28;20642;-65
2022/11/20 00:53:11;;;;;;;7.83;7.23;;;;;;;4.93;100.00;96225.88;4986993;28;20200;-66
2022/11/20 00:55:36;;;;;;;8.60;7.93;;;;;;;4.90;100.00;96220.28;4980202;28;20199;-66
2022/11/20 00:58:01;;;;;;;7.27;6.67;;;;;;;4.96;100.00;96225.44;4975937;28;20201;-66
2022/11/20 01:00:27;;;;;;;7.67;6.93;;;;;;;4.88;100.00;96225.69;4976707;28;20672;-66
2022/11/20 01:02:52;;;;;;;7.50;6.90;;;;;;;4.93;100.00;96217.28;4984284;28;20188;-66
2022/11/20 01:05:17;;;;;;;7.70;7.20;;;;;;;5.06;100.00;96225.03;4975787;28;20199;-66
2022/11/20 01:07:43;;;;;;;7.60;6.93;;;;;;;5.06;100.00;96216.44;4975539;28;20213;-65
2022/11/20 01:10:08;;;;;;;8.50;7.80;;;;;;;4.92;100.00;96218.28;4975858;28;20228;-65
2022/11/20 01:12:34;;;;;;;7.20;6.70;;;;;;;4.88;100.00;96223.09;4976482;28;20542;-66
2022/11/20 01:14:59;;;;;;;8.23;7.50;;;;;;;4.98;100.00;96223.44;4991482;28;20242;-65
2022/11/20 01:17:24;;;;;;;7.63;6.90;;;;;;;5.02;100.00;96219.44;4994477;28;20200;-65
2022/11/20 01:19:50;;;;;;;7.23;6.53;;;;;;;5.00;100.00;96228.44;4989601;28;20181;-68
2022/11/20 01:22:16;;;;;;;7.47;6.87;;;;;;;5.01;100.00;96220.44;4975791;28;20630;-65
2022/11/20 01:24:41;;;;;;;6.87;6.37;;;;;;;5.16;100.00;96232.38;4975406;28;20181;-65
2022/11/20 01:27:06;;;;;;;7.17;6.67;;;;;;;5.11;100.00;96234.81;4975539;28;20472;-67
2022/11/20 01:29:31;;;;;;;8.07;7.37;;;;;;;4.97;100.00;96236.63;4992867;28;20221;-65
2022/11/20 01:31:57;;;;;;;7.60;6.93;;;;;;;4.94;100.00;96235.25;4976966;28;20176;-65
2022/11/20 01:34:22;;;;;;;7.30;6.70;;;;;;;4.95;100.00;96233.47;4994223;28;20218;-65
2022/11/20 01:36:49;;;;;;;7.47;6.87;;;;;;;4.88;100.00;96237.88;4994345;28;20192;-66
2022/11/20 01:39:17;;;;;;;6.90;6.30;;;;;;;4.89;100.00;96231.69;4993979;28;20575;-66
2022/11/20 01:44:43;;;;;;;7.30;6.70;;;;;;;4.69;100.00;96228.31;4994174;28;20223;-65
2022/11/20 01:47:11;;;;;;;6.87;6.47;;;;;;;4.65;100.00;96230.53;4994080;28;20196;-65
2022/11/20 01:49:40;;;;;;;7.50;6.90;;;;;;;4.65;100.00;96227.94;4991461;28;20243;-65
2022/11/20 01:52:30;;;;;;;6.37;5.83;;;;;;;4.68;100.00;96222.31;4980872;28;20275;-65
2022/11/20 01:55:09;;;;;;;7.07;6.53;;;;;;;4.66;100.00;96215.75;4994110;28;20192;-66
2022/11/20 01:57:35;;;;;;;6.70;6.23;;;;;;;4.64;100.00;96215.16;4994398;28;20191;-65
2022/11/20 02:00:11;;;;;;;6.77;6.20;;;;;;;4.52;100.00;96223.56;4992680;28;20250;-65
2022/11/20 02:02:39;;;;;;;6.97;6.50;;;;;;;4.49;100.00;96220.59;4984127;28;20248;-65
2022/11/20 02:05:16;;;;;;;7.67;7.07;;;;;;;4.43;100.00;96232.56;4990825;28;20188;-65
2022/11/20 02:07:41;;;;;;;7.40;6.90;;;;;;;4.34;100.00;96225.19;4993887;28;20246;-65
2022/11/20 02:10:07;;;;;;;7.47;6.77;;;;;;;4.38;100.00;96237.56;4992326;28;20626;-65
2022/11/20 02:15:16;;;;;;;7.67;7.10;;;;;;;4.36;100.00;96238.75;4975468;28;20188;-65
2022/11/20 02:17:42;;;;;;;7.83;7.13;;;;;;;4.38;100.00;96239.34;4973575;28;20193;-65
2022/11/20 02:20:08;;;;;;;7.73;7.20;;;;;;;4.48;100.00;96234.56;4982118;28;20184;-65
2022/11/20 02:22:59;;;;;;;7.37;6.87;;;;;;;4.44;100.00;96239.34;4959138;28;20224;-65
2022/11/20 02:25:27;;;;;;;7.93;7.33;;;;;;;4.39;100.00;96241.75;4982499;28;20231;-65
2022/11/20 02:27:52;;;;;;;7.10;6.57;;;;;;;4.51;100.00;96236.75;4993281;28;20254;-65
2022/11/20 02:30:18;;;;;;;7.10;6.60;;;;;;;4.59;100.00;96229.53;4992296;28;20232;-66
2022/11/20 02:32:43;;;;;;;6.67;6.17;;;;;;;4.46;100.00;96236.53;4990779;28;20641;-65
2022/11/20 02:35:17;;;;;;;7.00;6.40;;;;;;;4.47;100.00;96228.56;4973959;28;20184;-65
2022/11/20 02:37:44;;;;;;;7.07;6.57;;;;;;;4.43;100.00;96232.56;4974358;28;20195;-65
2022/11/20 02:40:10;;;;;;;7.53;6.93;;;;;;;4.35;100.00;96237.94;4986999;28;20217;-66
2022/11/20 02:42:36;;;;;;;11.27;7.17;;;;;;;4.35;100.00;96232.75;4976225;28;20227;-65
2022/11/20 02:45:03;;;;;;;7.03;6.53;;;;;;;4.39;100.00;96235.75;4974249;28;20264;-65
2022/11/20 02:47:29;;;;;;;7.67;7.17;;;;;;;4.46;100.00;96246.91;4973670;28;20259;-65
2022/11/20 02:49:54;;;;;;;7.80;7.20;;;;;;;4.31;100.00;96234.16;4984594;28;20203;-65
2022/11/20 02:52:19;;;;;;;7.33;6.73;;;;;;;4.25;100.00;96231.56;4992992;28;20270;-66
2022/11/20 02:54:44;;;;;;;10.37;7.33;;;;;;;4.28;100.00;96236.38;4991101;28;20176;-65
2022/11/20 02:57:10;;;;;;;7.87;7.27;;;;;;;4.34;100.00;96235.56;4991794;28;20546;-65
2022/11/20 02:59:35;;;;;;;8.47;7.77;;;;;;;4.35;100.00;96239.75;4991194;28;20184;-65
2022/11/20 03:02:00;;;;;;;8.90;7.13;;;;;;;4.38;100.00;96242.75;4993386;28;20192;-65
2022/11/20 03:04:26;;;;;;;8.23;7.53;;;;;;;4.31;100.00;96238.56;4993099;28;20184;-65
2022/11/20 03:06:51;;;;;;;7.37;6.87;;;;;;;4.38;100.00;96240.16;4978763;28;20180;-69
2022/11/20 03:09:16;;;;;;;7.57;7.00;;;;;;;4.44;100.00;96235.97;4976123;28;20642;-65
2022/11/20 03:11:42;;;;;;;8.77;7.97;;;;;;;4.49;100.00;96243.94;4993035;28;20529;-66
2022/11/20 03:14:07;;;;;;;8.07;7.47;;;;;;;4.37;100.00;96235.16;4976513;28;20546;-65
2022/11/20 03:16:33;;;;;;;8.90;8.23;;;;;;;4.44;100.00;96238.56;4976987;28;20649;-67
2022/11/20 03:18:58;;;;;;;7.90;7.40;;;;;;;4.44;100.00;96234.16;4990703;28;20226;-65
2022/11/20 03:21:24;;;;;;;7.27;6.77;;;;;;;4.43;100.00;96234.34;4973071;28;20197;-67
2022/11/20 03:23:49;;;;;;;7.47;6.97;;;;;;;4.41;100.00;96239.75;4967695;28;20180;-65
2022/11/20 03:26:21;;;;;;;8.30;7.70;;;;;;;4.52;100.00;96228.75;4973561;28;20264;-66
2022/11/20 03:28:49;;;;;;;8.17;7.37;;;;;;;4.53;100.00;96226.94;4964612;28;20685;-65
2022/11/20 03:31:16;;;;;;;7.80;7.07;;;;;;;4.59;100.00;96226.16;4996729;28;20190;-66
2022/11/20 03:33:42;;;;;;;7.87;7.17;;;;;;;4.52;100.00;96220.16;4997032;28;20199;-66
2022/11/20 03:36:11;;;;;;;7.20;6.50;;;;;;;4.57;100.00;96217.75;4995200;28;20196;-65
2022/11/20 03:38:36;;;;;;;7.77;7.07;;;;;;;4.42;100.00;96225.78;4980278;28;20197;-65
2022/11/20 03:41:04;;;;;;;7.80;6.77;;;;;;;4.32;100.00;96229.78;4995863;28;20259;-67
2022/11/20 03:43:29;;;;;;;7.30;6.67;;;;;;;4.50;100.00;96215.19;4974502;28;20542;-66
2022/11/20 03:45:55;;;;;;;7.17;6.57;;;;;;;4.43;100.00;96227.38;4996251;28;20195;-65
2022/11/20 03:48:20;;;;;;;7.60;6.90;;;;;;;4.37;100.00;96229.97;4994744;28;20212;-65
2022/11/20 03:50:47;;;;;;;7.60;7.00;;;;;;;4.25;100.00;96221.19;4996045;28;20187;-66
2022/11/20 03:53:13;;;;;;;7.73;7.13;;;;;;;4.22;100.00;96226.78;4995961;28;20645;-65
2022/11/20 03:55:38;;;;;;;7.80;7.10;;;;;;;4.21;100.00;96222.59;4989267;28;20220;-65
2022/11/20 03:58:04;;;;;;;8.47;7.87;;;;;;;4.11;100.00;96223.81;4987533;28;20192;-66
2022/11/20 04:00:29;;;;;;;8.23;7.63;;;;;;;4.00;100.00;96228.78;4996331;28;20196;-65
2022/11/20 04:02:58;;;;;;;7.97;7.17;;;;;;;4.04;100.00;96223.00;4995857;28;20176;-65
2022/11/20 04:05:23;;;;;;;9.23;7.40;;;;;;;4.01;100.00;96218.19;4991734;28;20692;-67
2022/11/20 04:07:49;;;;;;;8.17;7.53;;;;;;;3.89;100.00;96222.41;4976651;28;20200;-65
2022/11/20 04:10:14;;;;;;;8.00;7.40;;;;;;;3.97;100.00;96213.63;4977028;28;20216;-65
2022/11/20 04:12:39;;;;;;;8.03;7.40;;;;;;;3.90;100.00;96226.56;4976764;28;20244;-65
2022/11/20 04:15:05;;;;;;;7.20;6.70;;;;;;;3.91;100.00;96220.41;4962301;28;20837;-66
2022/11/20 04:17:30;;;;;;;7.97;7.33;;;;;;;3.84;100.00;96221.41;4996190;28;20669;-65
2022/11/20 04:19:55;;;;;;;7.93;7.23;;;;;;;3.84;100.00;96217.03;4978242;28;20180;-66
2022/11/20 04:22:21;;;;;;;7.83;7.23;;;;;;;3.85;100.00;96216.00;4975719;28;20621;-65
2022/11/20 04:24:46;;;;;;;7.87;7.20;;;;;;;3.98;100.00;96217.81;4976912;28;20681;-65
2022/11/20 04:27:11;;;;;;;8.03;7.33;;;;;;;4.03;100.00;96215.41;4995719;28;20568;-66
2022/11/20 04:29:37;;;;;;;8.87;7.43;;;;;;;4.05;100.00;96216.03;4995578;28;20691;-66
2022/11/20 04:32:02;;;;;;;7.53;6.83;;;;;;;4.02;100.00;96221.59;4978167;28;20653;-66
2022/11/20 04:34:27;;;;;;;7.77;7.13;;;;;;;4.01;100.00;96209.66;4995493;28;20196;-65
2022/11/20 04:36:53;;;;;;;8.23;6.93;;;;;;;4.02;100.00;96209.44;4992910;28;20263;-66
2022/11/20 04:39:18;;;;;;;7.20;6.70;;;;;;;4.02;100.00;96204.25;4994666;28;20637;-65
2022/11/20 04:41:44;;;;;;;7.50;6.90;;;;;;;4.01;100.00;96213.00;4994847;28;20176;-65
2022/11/20 04:44:09;;;;;;;7.40;6.80;;;;;;;4.02;100.00;96212.03;4977917;28;20660;-65
2022/11/20 04:46:38;;;;;;;7.60;6.83;;;;;;;4.04;100.00;96204.06;4983258;28;20192;-65
2022/11/20 04:49:03;;;;;;;7.83;7.23;;;;;;;3.97;100.00;96205.84;4976129;28;20208;-65
2022/11/20 04:51:29;;;;;;;9.03;6.90;;;;;;;4.00;100.00;96210.66;4974051;28;20199;-65
2022/11/20 04:53:55;;;;;;;8.53;7.70;;;;;;;4.01;100.00;96207.06;4977206;28;20193;-65
2022/11/20 04:56:20;;;;;;;7.80;6.97;;;;;;;4.13;100.00;96201.06;4985868;28;20206;-65
2022/11/20 04:58:46;;;;;;;7.50;6.90;;;;;;;4.22;100.00;96206.84;4995172;28;20550;-69
2022/11/20 05:01:21;;;;;;;7.43;6.80;;;;;;;4.13;100.00;96203.66;4981670;28;20185;-65
2022/11/20 05:03:46;;;;;;;7.70;7.10;;;;;;;4.16;100.00;96208.44;4991433;28;20645;-66
2022/11/20 05:06:14;;;;;;;8.63;7.73;;;;;;;4.13;100.00;96195.06;4986457;28;20185;-65
2022/11/20 05:08:40;;;;;;;8.30;7.67;;;;;;;4.22;100.00;96206.06;4975459;28;20614;-65
2022/11/20 05:11:09;;;;;;;7.73;7.13;;;;;;;4.18;100.00;96208.22;4975554;28;20196;-65
2022/11/20 05:13:35;;;;;;;7.63;7.13;;;;;;;4.27;100.00;96204.44;4989749;28;20186;-65
2022/11/20 05:16:06;;;;;;;8.70;7.90;;;;;;;4.33;100.00;96200.25;4987697;28;20556;-65
2022/11/20 05:18:32;;;;;;;8.97;8.33;;;;;;;4.28;100.00;96211.25;4975695;28;20271;-65
2022/11/20 05:20:58;;;;;;;7.33;6.83;;;;;;;4.29;100.00;96202.44;4983119;28;20199;-66
2022/11/20 05:23:24;;;;;;;7.23;6.70;;;;;;;4.35;100.00;96203.41;4957956;28;20181;-65
2022/11/20 05:25:54;;;;;;;6.97;6.47;;;;;;;4.38;100.00;96203.03;4975927;28;20290;-66
2022/11/20 05:28:20;;;;;;;6.97;6.47;;;;;;;4.35;100.00;96200.81;4975254;28;20228;-66
2022/11/20 05:30:45;;;;;;;6.73;6.23;;;;;;;4.41;100.00;96202.63;4958121;28;20173;-65
2022/11/20 05:33:11;;;;;;;7.37;6.77;;;;;;;4.37;100.00;96201.44;4990103;28;20184;-65
2022/11/20 05:35:36;;;;;;;6.27;5.87;;;;;;;4.41;100.00;96197.44;4978409;28;20589;-66
2022/11/20 05:38:01;;;;;;;7.13;6.43;;;;;;;4.47;100.00;96197.44;4959467;28;20192;-66
2022/11/20 05:40:27;;;;;;;7.00;6.43;;;;;;;4.57;100.00;96199.59;4975175;28;20184;-66
2022/11/20 05:42:52;;;;;;;7.67;7.17;;;;;;;4.43;100.00;96205.81;4974919;28;20212;-66
2022/11/20 05:45:17;;;;;;;8.07;7.47;;;;;;;4.46;100.00;96200.22;4975275;28;20257;-65
2022/11/20 05:47:42;;;;;;;8.17;7.57;;;;;;;4.53;100.00;96201.81;4991291;28;20211;-65
2022/11/20 05:50:08;;;;;;;8.03;7.43;;;;;;;4.55;100.00;96205.00;4991039;28;20642;-64
2022/11/20 05:52:33;;;;;;;7.10;6.60;;;;;;;4.55;100.00;96199.00;4975007;28;20184;-65
2022/11/20 05:54:59;;;;;;;7.77;6.93;;;;;;;4.66;100.00;96202.78;4975039;28;20643;-64
2022/11/20 05:57:24;;;;;;;7.60;6.90;;;;;;;4.56;100.00;96200.63;4988831;28;20191;-68
2022/11/20 05:59:49;;;;;;;6.90;6.50;;;;;;;4.59;100.00;96203.59;4993503;28;20196;-65
2022/11/20 06:02:15;;;;;;;6.80;6.33;;;;;;;4.46;100.00;96206.19;4991839;28;20180;-65
2022/11/20 06:04:40;;;;;;;7.20;6.50;;;;;;;4.45;100.00;96201.25;4994553;28;20660;-64
2022/11/20 06:07:06;;;;;;;6.70;6.10;;;;;;;4.56;100.00;96200.63;4980560;28;20187;-65
2022/11/20 06:09:32;;;;;;;6.30;5.90;;;;;;;4.58;100.00;96203.78;4975453;28;20212;-65
2022/11/20 06:11:57;;;;;;;6.67;6.10;;;;;;;4.49;100.00;96199.81;4971906;28;20185;-64
2022/11/20 06:14:22;;;;;;;6.73;6.10;;;;;;;4.58;100.00;96199.41;4974734;28;20266;-64
2022/11/20 06:16:48;;;;;;;5.90;5.50;;;;;;;4.56;100.00;96198.81;4974726;28;20195;-69
2022/11/20 06:19:13;;;;;;;6.57;6.00;;;;;;;4.50;100.00;96202.22;4957216;28;20204;-64
2022/11/20 06:21:38;;;;;;;6.60;6.00;;;;;;;4.57;100.00;96200.41;4958080;28;20201;-66
2022/11/20 06:24:04;;;;;;;6.83;6.33;;;;;;;4.60;100.00;96194.81;4959947;28;20561;-64
2022/11/20 06:26:30;;;;;;;6.50;6.00;;;;;;;4.50;100.00;96198.81;4982366;28;20206;-64
2022/11/20 06:28:55;;;;;;;6.83;6.30;;;;;;;4.46;100.00;96195.81;4991768;28;20271;-65
2022/11/20 06:31:23;;;;;;;7.17;6.57;;;;;;;4.57;100.00;96195.19;4976049;28;20642;-65
2022/11/20 06:33:49;;;;;;;6.57;6.03;;;;;;;4.54;100.00;96194.81;4974901;28;20196;-65
2022/11/20 06:36:16;;;;;;;6.77;6.17;;;;;;;4.57;100.00;96189.22;4980649;28;20192;-65
2022/11/20 06:38:42;;;;;;;6.03;5.67;;;;;;;4.51;100.00;96184.88;4993456;28;20192;-65
2022/11/20 06:41:15;;;;;;;6.77;6.27;;;;;;;4.49;100.00;96185.06;4979910;28;20189;-65
2022/11/20 06:43:40;;;;;;;6.80;6.30;;;;;;;4.57;100.00;96184.03;4975199;28;20183;-65
2022/11/20 06:46:06;;;;;;;6.23;5.83;;;;;;;4.57;100.00;96195.19;4988487;28;20642;-65
2022/11/20 06:48:32;;;;;;;6.80;6.20;;;;;;;4.54;100.00;96190.44;4964879;28;20215;-65
2022/11/20 06:50:58;;;;;;;7.07;6.37;;;;;;;4.54;100.00;96193.03;4993226;28;20713;-65
2022/11/20 06:53:23;;;;;;;6.43;6.03;;;;;;;4.62;100.00;96186.03;4993222;28;20684;-65
2022/11/20 06:55:50;;;;;;;7.70;7.00;;;;;;;4.48;100.00;96190.44;4990229;28;20176;-65
2022/11/20 06:58:16;;;;;;;6.60;6.20;;;;;;;4.51;100.00;96193.41;4973971;28;20197;-64
2022/11/20 07:00:42;;;;;;;7.03;6.53;;;;;;;4.54;100.00;96198.22;4973888;28;20275;-66
2022/11/20 07:03:09;;;;;;;6.07;5.57;;;;;;;4.52;100.00;96199.41;4986431;28;20543;-64
2022/11/20 07:05:35;;;;;;;7.27;6.67;;;;;;;4.55;100.00;96199.81;4991039;28;20286;-67
2022/11/20 07:08:02;;;;;;;6.90;6.30;;;;;;;4.47;100.00;96199.22;4977613;28;20203;-64
2022/11/20 07:10:28;;;;;;;6.93;6.43;;;;;;;4.48;100.00;96206.81;4992985;28;20180;-65
2022/11/20 07:12:53;;;;;;;7.47;6.90;;;;;;;4.56;100.00;96204.00;4992744;28;20192;-66
2022/11/20 07:15:21;;;;;;;7.20;6.60;;;;;;;4.45;100.00;96209.81;4992681;28;20595;-65
2022/11/20 07:17:46;;;;;;;7.23;6.57;;;;;;;4.55;100.00;96212.78;4974570;28;20185;-64
2022/11/20 07:20:12;;;;;;;8.00;6.90;;;;;;;4.56;100.00;96204.00;4971379;28;20697;-64
2022/11/20 07:22:38;;;;;;;7.27;6.50;;;;;;;4.57;100.00;96213.38;4973821;28;20193;-65
2022/11/20 07:25:03;;;;;;;7.53;6.83;;;;;;;4.53;100.00;96201.00;4973753;28;20646;-65
2022/11/20 07:27:29;;;;;;;7.40;6.80;;;;;;;4.72;100.00;96209.75;4974881;28;20208;-65
2022/11/20 07:29:55;;;;;;;6.93;6.43;;;;;;;4.77;100.00;96210.75;4973863;28;20546;-65
2022/11/20 07:32:21;;;;;;;6.90;6.40;;;;;;;4.79;100.00;96207.94;4979262;28;20176;-65
2022/11/20 07:34:46;;;;;;;6.40;5.97;;;;;;;4.83;100.00;96203.94;4993021;28;20184;-66
2022/11/20 07:37:12;;;;;;;6.13;5.73;;;;;;;4.96;100.00;96214.25;4979718;28;20177;-66
2022/11/20 07:39:38;;;;;;;7.83;7.23;;;;;;;5.04;100.00;96214.03;4973831;28;20190;-65
2022/11/20 07:42:03;;;;;;;9.73;8.93;;;;;;;5.11;100.00;96219.22;4975599;28;20176;-68
2022/11/20 07:44:28;;;;;;;8.83;8.13;;;;;;;6.98;100.00;96218.22;4988265;28;20195;-65
2022/11/20 07:46:54;;;;;;;8.63;8.03;;;;;;;6.01;100.00;96218.94;4983153;28;20240;-66
2022/11/20 07:49:19;;;;;;;8.50;7.90;;;;;;;5.43;100.00;96224.25;4973732;28;20246;-66
2022/11/20 07:51:44;;;;;;;6.83;6.43;;;;;;;5.47;100.00;96221.22;4973933;28;20678;-66
2022/11/20 07:54:10;;;;;;;7.60;7.03;;;;;;;5.46;100.00;96217.88;4979449;28;20184;-65
2022/11/20 07:56:35;;;;;;;7.17;6.60;;;;;;;5.41;100.00;96223.66;4992737;28;20264;-65
2022/11/20 07:59:00;;;;;;;7.10;6.57;;;;;;;5.53;100.00;96223.78;4982034;28;20189;-65
2022/11/20 08:01:26;;;;;;;7.97;6.93;;;;;;;5.64;100.00;96230.94;4973712;28;20192;-64
2022/11/20 08:03:51;;;;;;;7.57;7.07;;;;;;;5.56;100.00;96225.19;4982765;28;20184;-64
2022/11/20 08:06:18;;;;;;;5.90;5.50;;;;;;;5.66;100.00;96236.72;4973782;28;20645;-64
2022/11/20 08:08:44;;;;;;;5.90;5.40;;;;;;;5.57;100.00;96234.59;4969979;28;20199;-64
2022/11/20 08:14:11;;;;;;;6.03;5.53;;;;;;;5.63;100.00;96244.94;4990556;28;20312;-65
2022/11/20 08:16:38;;;;;;;9.30;8.70;;;;;;;5.55;100.00;96241.78;4988864;28;20212;-66
2022/11/20 08:19:04;;;;;;;10.63;9.93;;;;;;;5.74;100.00;96246.09;4976786;28;20609;-66
2022/11/20 08:21:30;;;;;;;12.90;12.07;;;;;;;5.77;100.00;96240.47;4956883;28;20189;-66
2022/11/20 08:23:57;;;;;;;18.33;17.37;;;;;;;5.84;100.00;96247.22;4980511;28;20219;-67
2022/11/20 08:26:23;;;;;;;7.80;7.30;;;;;;;5.78;100.00;96236.88;4988743;28;20192;-66
2022/11/20 08:28:48;;;;;;;6.63;6.23;;;;;;;5.71;100.00;96238.69;4976751;28;20240;-64
2022/11/20 08:31:14;;;;;;;6.93;6.43;;;;;;;5.79;100.00;96249.66;4976936;28;20552;-66
2022/11/20 08:33:39;;;;;;;7.67;7.07;;;;;;;5.68;100.00;96252.13;4960395;28;20191;-65
2022/11/20 08:36:05;;;;;;;7.60;6.90;;;;;;;5.86;100.00;96244.41;4978007;28;20553;-65
2022/11/20 08:38:31;;;;;;;7.60;6.97;;;;;;;5.94;100.00;96256.41;4995616;28;20227;-67
2022/11/20 08:43:45;;;;;;;6.47;5.97;;;;;;;5.97;100.00;96248.94;4971205;28;20244;-66
2022/11/20 08:46:11;;;;;;;5.57;5.17;;;;;;;5.96;100.00;96251.78;4976433;28;20188;-67
2022/11/20 08:48:36;;;;;;;5.17;4.87;;;;;;;5.94;100.00;96246.00;4976398;28;20212;-65
2022/11/20 08:51:01;;;;;;;5.33;4.93;;;;;;;5.86;100.00;96250.41;4987944;28;20526;-66
2022/11/20 08:53:27;;;;;;;5.53;5.23;;;;;;;6.20;100.00;96251.78;4995232;28;20192;-65
2022/11/20 08:55:52;;;;;;;5.80;5.40;;;;;;;6.12;100.00;96248.66;4994969;28;20192;-66
2022/11/20 08:58:18;;;;;;;5.67;5.30;;;;;;;6.16;100.00;96252.44;4995386;28;20188;-67
2022/11/20 09:00:43;;;;;;;5.93;5.53;;;;;;;6.40;100.00;96256.84;4986527;28;20603;-66
2022/11/20 09:03:08;;;;;;;7.37;6.97;;;;;;;6.44;100.00;96252.00;4976113;28;20199;-67
2022/11/20 09:05:34;;;;;;;6.23;5.83;;;;;;;6.69;100.00;96250.16;4976542;28;20191;-68
2022/11/20 09:07:59;;;;;;;5.50;5.30;;;;;;;6.71;100.00;96262.97;4975974;28;20674;-68
2022/11/20 09:10:28;;;;;;;9.53;9.03;;;;;;;6.70;100.00;96264.78;4975950;28;20618;-70
2022/11/20 09:12:55;;;;;;;6.23;5.93;;;;;;;6.75;100.00;96262.31;4975396;28;20240;-67
2022/11/20 09:15:21;;;;;;;6.73;6.23;;;;;;;6.67;100.00;96265.22;4976214;28;20189;-66
2022/11/20 09:18:01;;;;;;;6.07;5.67;;;;;;;6.77;100.00;96264.72;4992650;28;20267;-66
2022/11/20 09:20:28;;;;;;;6.33;5.93;;;;;;;6.72;100.00;96270.59;4988477;28;20247;-64
2022/11/20 09:22:54;;;;;;;8.53;8.03;;;;;;;6.69;100.00;96271.00;4994575;28;20272;-67
2022/11/20 09:25:20;;;;;;;7.20;6.80;;;;;;;6.77;100.00;96265.53;4993095;28;20557;-64
2022/11/20 09:27:45;;;;;;;7.83;7.43;;;;;;;6.96;100.00;96272.34;4993840;28;20215;-63
2022/11/20 09:30:12;;;;;;;7.37;6.97;;;;;;;6.78;100.00;96279.34;4975267;28;20647;-63
2022/11/20 09:32:42;;;;;;;7.30;6.90;;;;;;;6.75;100.00;96277.94;4979339;28;20183;-63
2022/11/20 09:35:08;;;;;;;4.67;4.47;;;;;;;6.62;100.00;96268.47;4982733;28;20188;-65
2022/11/20 09:37:34;;;;;;;5.10;4.80;;;;;;;6.59;100.00;96270.69;4957897;28;20282;-68
2022/11/20 09:39:59;;;;;;;4.33;4.13;;;;;;;6.74;100.00;96273.78;4975664;28;20725;-64
2022/11/20 09:42:41;;;;;;;8.33;7.93;;;;;;;6.71;100.00;96278.59;4976143;28;20544;-64
2022/11/20 09:45:20;;;;;;;5.10;4.70;;;;;;;6.65;100.00;96280.25;4982638;28;20181;-65
2022/11/20 09:47:54;;;;;;;4.80;4.47;;;;;;;6.61;100.00;96285.09;4975076;28;20192;-65
2022/11/20 09:50:32;;;;;;;4.17;3.97;;;;;;;6.53;100.00;96279.34;4957821;28;20193;-63
2022/11/20 09:53:10;;;;;;;5.13;4.93;;;;;;;6.59;100.00;96281.91;4992247;28;20279;-64
2022/11/20 09:55:36;;;;;;;4.53;4.23;;;;;;;6.88;100.00;96292.66;4993539;28;20198;-64
2022/11/20 09:58:06;;;;;;;8.13;7.73;;;;;;;6.77;100.00;96285.56;4977023;28;20193;-65
2022/11/20 10:00:32;;;;;;;4.60;4.30;;;;;;;6.87;100.00;96286.66;4974890;28;20189;-64
2022/11/20 10:03:03;;;;;;;5.83;5.47;;;;;;;6.84;100.00;96287.09;4974484;28;20235;-65
2022/11/20 10:05:45;;;;;;;7.30;7.00;;;;;;;6.74;100.00;96283.41;4988247;28;20212;-65
2022/11/20 10:08:31;;;;;;;5.50;5.30;;;;;;;7.02;100.00;96281.13;4975261;28;20220;-65
2022/11/20 10:11:26;;;;;;;6.40;6.13;;;;;;;6.92;100.00;96275.59;4974622;28;20223;-65
2022/11/20 10:14:16;;;;;;;6.33;6.03;;;;;;;6.92;100.00;96278.19;4973908;28;20193;-65
2022/11/20 10:16:46;;;;;;;4.47;4.27;;;;;;;6.82;100.00;96296.94;4976341;28;20180;-65
2022/11/20 10:19:36;;;;;;;4.43;4.23;;;;;;;6.60;100.00;96288.72;4982172;28;20205;-64
2022/11/20 10:22:04;;;;;;;6.80;6.50;;;;;;;6.63;100.00;96288.28;4991942;28;20234;-64
2022/11/20 10:24:41;;;;;;;3.33;3.23;;;;;;;6.60;100.00;96291.31;4994521;28;20188;-64
2022/11/20 10:27:27;;;;;;;3.37;3.27;;;;;;;6.64;100.00;96289.06;4992248;28;20542;-63
2022/11/20 10:30:03;;;;;;;5.27;5.03;;;;;;;6.62;100.00;96291.91;4993609;28;20248;-64
2022/11/20 10:32:36;;;;;;;3.37;2.97;;;;;;;6.60;100.00;96293.91;4993961;28;20251;-64
2022/11/20 10:35:20;;;;;;;4.10;3.90;;;;;;;6.59;100.00;96302.72;4991147;28;20176;-65
2022/11/20 10:37:51;;;;;;;7.27;6.87;;;;;;;6.44;100.00;96301.47;4980633;28;20180;-65
2022/11/20 10:40:38;;;;;;;4.50;4.30;;;;;;;6.37;100.00;96298.09;4974518;28;20189;-65
2022/11/20 10:43:19;;;;;;;5.30;4.90;;;;;;;6.40;100.00;96303.72;4973984;28;20267;-64
2022/11/20 10:45:47;;;;;;;4.13;3.93;;;;;;;6.14;100.00;96299.47;4988145;28;20187;-64
2022/11/20 10:48:19;;;;;;;4.10;3.90;;;;;;;5.99;100.00;96301.56;4975277;28;20208;-64
2022/11/20 10:51:12;;;;;;;4.37;4.17;;;;;;;6.09;100.00;96306.31;4974310;28;20185;-65
2022/11/20 10:53:56;;;;;;;6.90;6.60;;;;;;;6.09;100.00;96299.31;4974014;28;20181;-65
2022/11/20 10:56:24;;;;;;;4.57;4.33;;;;;;;6.02;100.00;96295.16;4988143;28;20207;-65
2022/11/20 10:59:28;;;;;;;3.97;3.67;;;;;;;6.07;100.00;96290.13;4969433;28;20188;-66
2022/11/20 11:01:53;;;;;;;5.37;4.97;;;;;;;6.02;100.00;96295.16;4974007;28;20207;-65
2022/11/20 11:04:43;;;;;;;5.10;4.80;;;;;;;5.97;100.00;96294.97;4976563;28;20772;-64
2022/11/20 11:07:36;;;;;;;5.23;4.97;;;;;;;6.17;100.00;96290.47;4975635;28;20239;-68
2022/11/20 11:10:12;;;;;;;6.17;5.77;;;;;;;6.15;100.00;96287.25;4993393;28;20647;-64
2022/11/20 11:12:45;;;;;;;4.50;4.27;;;;;;;6.14;100.00;96285.66;4993021;28;20180;-65
2022/11/20 11:15:15;;;;;;;4.83;4.53;;;;;;;6.17;100.00;96283.44;4984399;28;20212;-64
2022/11/20 11:17:47;;;;;;;5.33;5.03;;;;;;;6.18;100.00;96279.03;4974071;28;20181;-64
2022/11/20 11:20:18;;;;;;;5.93;5.63;;;;;;;6.03;100.00;96283.72;4978011;28;20192;-64
2022/11/20 11:22:47;;;;;;;5.80;5.30;;;;;;;5.97;100.00;96271.56;4993125;28;20187;-63
2022/11/20 11:25:39;;;;;;;5.43;5.23;;;;;;;6.26;100.00;96260.56;4976601;28;20219;-64
2022/11/20 11:28:19;;;;;;;4.67;4.47;;;;;;;6.46;100.00;96256.00;4969255;28;20228;-65
2022/11/20 11:30:45;;;;;;;5.33;5.03;;;;;;;6.69;100.00;96256.16;4986898;28;20220;-64
2022/11/20 11:33:26;;;;;;;4.90;4.70;;;;;;;6.73;100.00;96246.13;4974541;28;20207;-66
2022/11/20 11:35:53;;;;;;;4.53;4.30;;;;;;;6.69;100.00;96245.75;4977164;28;20518;-65
2022/11/20 11:38:34;;;;;;;4.93;4.70;;;;;;;6.65;100.00;96241.19;4992766;28;20185;-65
2022/11/20 11:41:01;;;;;;;4.67;4.33;;;;;;;6.72;100.00;96239.34;4984610;28;20184;-64
2022/11/20 11:46:35;;;;;;;5.50;5.20;;;;;;;6.82;100.00;96233.63;4983627;28;20192;-64
2022/11/20 11:49:04;;;;;;;5.40;4.97;;;;;;;6.87;100.00;96226.75;4974350;28;20241;-65
2022/11/20 11:51:39;;;;;;;4.10;3.90;;;;;;;6.92;100.00;96232.09;4994213;28;20191;-65
2022/11/20 11:54:15;;;;;;;8.40;7.80;;;;;;;6.91;100.00;96230.50;4995010;28;20187;-65